Time;durP1;ratioP1;P1;durP2;ratioP2;P2;SDS_P1;SDS_P2;PMS_P1;PMS_P2;Temp;Humidity;BMP_temperature;BMP_pressure;BME280_temperature;BME280_humidity;BME280_pressure;Samples;Min_cycle;Max_cycle;Signal;HPM_P1;HPM_P2
2022/05/07 00:00:22;;;;;;;11.10;8.93;;;15.90;73.10;;;;;;5016457;28;20700;-78
2022/05/07 00:02:49;;;;;;;12.30;10.63;;;15.90;73.70;;;;;;5017059;28;20216;-78
2022/05/07 00:05:15;;;;;;;13.35;10.48;;;15.90;74.30;;;;;;5034722;28;20573;-78
2022/05/07 00:07:41;;;;;;;11.30;9.55;;;15.80;75.60;;;;;;5016511;28;20185;-78
2022/05/07 00:10:07;;;;;;;11.27;9.43;;;15.80;75.30;;;;;;5000255;28;20220;-78
2022/05/07 00:12:33;;;;;;;13.73;12.10;;;15.80;75.80;;;;;;5034649;28;20703;-78
2022/05/07 00:14:59;;;;;;;10.93;9.87;;;15.70;76.30;;;;;;5034283;28;20290;-78
2022/05/07 00:20:09;;;;;;;11.95;9.70;;;15.60;77.40;;;;;;5033956;28;20208;-79
2022/05/07 00:22:35;;;;;;;15.05;10.80;;;15.60;77.80;;;;;;5016766;28;20169;-78
2022/05/07 00:25:01;;;;;;;10.53;9.63;;;15.60;78.50;;;;;;5034306;28;20670;-78
2022/05/07 00:27:27;;;;;;;13.80;11.27;;;15.60;79.00;;;;;;5034446;28;20189;-78
2022/05/07 00:29:53;;;;;;;10.97;9.70;;;15.50;79.60;;;;;;5015491;28;20274;-78
2022/05/07 00:32:19;;;;;;;12.80;10.40;;;15.50;80.10;;;;;;5016467;28;20178;-78
2022/05/07 00:34:44;;;;;;;14.43;12.63;;;15.50;80.70;;;;;;5034154;28;20165;-78
2022/05/07 00:37:10;;;;;;;11.60;10.40;;;15.40;81.10;;;;;;5034108;28;20197;-78
2022/05/07 00:39:36;;;;;;;13.87;12.37;;;15.40;81.70;;;;;;5015399;28;20709;-78
2022/05/07 00:42:06;;;;;;;14.53;13.00;;;15.40;82.30;;;;;;5017015;28;20174;-78
2022/05/07 00:44:33;;;;;;;12.80;11.50;;;15.40;83.50;;;;;;5033891;28;20174;-78
2022/05/07 00:47:21;;;;;;;12.75;11.10;;;15.40;83.60;;;;;;4999947;28;20170;-78
2022/05/07 00:49:49;;;;;;;15.60;12.35;;;15.30;85.00;;;;;;5033517;28;20704;-78
2022/05/07 00:52:15;;;;;;;11.63;10.40;;;15.30;84.60;;;;;;5033309;28;20173;-79
2022/05/07 00:54:42;;;;;;;12.95;11.65;;;15.30;85.10;;;;;;5015788;28;20172;-78
2022/05/07 00:57:09;;;;;;;12.82;10.30;;;15.30;85.90;;;;;;5033667;28;20169;-78
2022/05/07 00:59:34;;;;;;;13.18;10.90;;;15.30;87.40;;;;;;5015573;28;20876;-78
2022/05/07 01:02:00;;;;;;;13.47;11.77;;;15.30;87.10;;;;;;5016217;28;20173;-78
2022/05/07 01:04:27;;;;;;;11.38;10.27;;;15.30;87.80;;;;;;5015400;28;20604;-78
2022/05/07 01:06:54;;;;;;;17.13;11.20;;;15.20;88.20;;;;;;5016780;28;20166;-78
2022/05/07 01:09:20;;;;;;;12.68;10.68;;;15.20;88.90;;;;;;5016309;28;20997;-78
2022/05/07 01:11:46;;;;;;;12.70;11.10;;;15.20;89.60;;;;;;5017370;28;20180;-78
2022/05/07 01:14:12;;;;;;;15.35;11.98;;;15.20;90.10;;;;;;5037289;28;20162;-78
2022/05/07 01:16:38;;;;;;;12.80;10.47;;;15.10;90.90;;;;;;5020533;28;20166;-77
2022/05/07 01:19:04;;;;;;;13.68;12.23;;;15.10;90.80;;;;;;5019632;28;20204;-78
2022/05/07 01:21:30;;;;;;;13.97;12.57;;;15.10;91.20;;;;;;5038906;28;20189;-78
2022/05/07 01:23:59;;;;;;;14.98;13.43;;;15.10;92.40;;;;;;5018627;28;20573;-78
2022/05/07 01:26:29;;;;;;;13.20;11.70;;;15.10;92.30;;;;;;5017215;28;20174;-78
2022/05/07 01:29:01;;;;;;;14.73;13.32;;;15.10;92.80;;;;;;5017811;28;20301;-77
2022/05/07 01:31:29;;;;;;;15.55;13.93;;;15.00;93.70;;;;;;5021288;28;20212;-77
2022/05/07 01:33:55;;;;;;;14.82;13.32;;;15.00;94.70;;;;;;5019694;28;20176;-78
2022/05/07 01:36:22;;;;;;;14.68;13.35;;;15.00;94.30;;;;;;5022320;28;20193;-77
2022/05/07 01:38:55;;;;;;;16.40;14.88;;;15.00;94.20;;;;;;5021356;28;20197;-78
2022/05/07 01:41:21;;;;;;;14.20;12.80;;;15.00;94.90;;;;;;5002519;28;20200;-77
2022/05/07 01:43:48;;;;;;;15.10;13.52;;;15.00;94.80;;;;;;5017108;28;20190;-78
2022/05/07 01:49:03;;;;;;;14.80;13.23;;;15.00;94.90;;;;;;5014968;28;20680;-78
2022/05/07 01:51:30;;;;;;;13.65;12.45;;;15.00;95.00;;;;;;5032779;28;20236;-78
2022/05/07 01:53:57;;;;;;;14.90;13.60;;;14.90;95.30;;;;;;5015302;28;20181;-78
2022/05/07 01:56:23;;;;;;;14.13;12.85;;;14.90;95.40;;;;;;5015281;28;20178;-77
2022/05/07 01:58:49;;;;;;;15.07;13.77;;;14.90;95.70;;;;;;5014756;28;20208;-78
2022/05/07 02:01:16;;;;;;;14.20;12.88;;;14.90;95.80;;;;;;5014777;28;20196;-78
2022/05/07 02:03:41;;;;;;;14.70;13.20;;;14.90;96.30;;;;;;5015304;28;20162;-78
2022/05/07 02:06:08;;;;;;;13.90;12.57;;;14.90;96.70;;;;;;5014919;28;20170;-78
2022/05/07 02:08:35;;;;;;;13.65;12.35;;;14.80;96.50;;;;;;5014375;28;20173;-78
2022/05/07 02:11:05;;;;;;;14.27;12.90;;;14.80;96.50;;;;;;5014176;28;20686;-78
2022/05/07 02:13:31;;;;;;;15.80;14.40;;;14.80;97.20;;;;;;5015052;28;20212;-78
2022/05/07 02:15:58;;;;;;;15.40;13.35;;;14.70;97.10;;;;;;5013748;28;20174;-78
2022/05/07 02:18:24;;;;;;;15.67;14.17;;;14.70;97.10;;;;;;5014190;28;20287;-78
2022/05/07 02:20:50;;;;;;;12.80;10.83;;;14.70;97.10;;;;;;5014407;28;20280;-78
2022/05/07 02:23:19;;;;;;;13.27;11.97;;;14.70;97.20;;;;;;5032316;28;20231;-78
2022/05/07 02:25:46;;;;;;;12.68;11.48;;;14.60;97.60;;;;;;4998123;28;20201;-78
2022/05/07 02:28:12;;;;;;;13.48;12.18;;;14.60;97.40;;;;;;5031862;28;20655;-78
2022/05/07 02:30:38;;;;;;;14.07;12.13;;;14.60;97.50;;;;;;5031815;28;20181;-78
2022/05/07 02:33:06;;;;;;;15.70;12.85;;;14.50;97.80;;;;;;5014505;28;20197;-78
2022/05/07 02:35:35;;;;;;;16.30;14.60;;;14.50;97.90;;;;;;5014309;28;20562;-78
2022/05/07 02:38:01;;;;;;;14.20;12.80;;;14.50;98.40;;;;;;5013804;28;20226;-78
2022/05/07 02:40:27;;;;;;;17.83;13.50;;;14.50;98.30;;;;;;5013787;28;20185;-78
2022/05/07 02:42:55;;;;;;;15.85;14.13;;;14.50;98.80;;;;;;5014322;28;20166;-78
2022/05/07 02:45:22;;;;;;;16.50;14.80;;;14.40;98.70;;;;;;5014201;28;20166;-78
2022/05/07 02:47:52;;;;;;;15.63;14.13;;;14.40;99.30;;;;;;5031155;28;20201;-78
2022/05/07 02:50:20;;;;;;;16.33;14.63;;;14.30;99.30;;;;;;5013656;28;20209;-78
2022/05/07 02:52:46;;;;;;;18.10;14.95;;;14.30;99.70;;;;;;5013992;28;20663;-78
2022/05/07 02:55:12;;;;;;;16.33;14.73;;;14.30;99.90;;;;;;5014098;28;20170;-78
2022/05/07 02:57:41;;;;;;;16.75;15.15;;;14.20;99.90;;;;;;4997747;28;20577;-78
2022/05/07 03:00:08;;;;;;;17.52;15.32;;;14.20;99.90;;;;;;5014062;28;20193;-78
2022/05/07 03:02:36;;;;;;;16.50;14.98;;;14.20;99.90;;;;;;5014166;28;20173;-78
2022/05/07 03:05:02;;;;;;;17.70;14.85;;;14.20;99.90;;;;;;5013356;28;20568;-78
2022/05/07 03:07:28;;;;;;;16.30;14.70;;;14.20;99.90;;;;;;5012828;28;20165;-78
2022/05/07 03:09:56;;;;;;;16.77;15.38;;;14.20;99.90;;;;;;5013748;28;20658;-78
2022/05/07 03:12:22;;;;;;;18.17;15.60;;;14.20;99.90;;;;;;4997370;28;20174;-78
2022/05/07 03:14:47;;;;;;;16.00;13.30;;;14.10;99.90;;;;;;5014138;28;20260;-79
2022/05/07 03:17:13;;;;;;;16.40;14.43;;;14.10;99.90;;;;;;4997444;28;20189;-78
2022/05/07 03:19:39;;;;;;;18.57;16.87;;;14.10;99.90;;;;;;4996509;28;20259;-78
2022/05/07 03:22:05;;;;;;;17.93;14.87;;;14.10;99.90;;;;;;5013507;28;20185;-78
2022/05/07 03:24:33;;;;;;;17.20;15.55;;;14.10;99.90;;;;;;5013956;28;21197;-78
2022/05/07 03:27:02;;;;;;;17.45;15.90;;;14.10;99.90;;;;;;5015786;28;20158;-78
2022/05/07 03:29:28;;;;;;;16.40;14.93;;;14.10;99.90;;;;;;5017032;28;20209;-78
2022/05/07 03:32:05;;;;;;;16.15;14.65;;;14.00;99.90;;;;;;5017905;28;20173;-78
2022/05/07 03:34:31;;;;;;;17.75;16.05;;;14.10;99.90;;;;;;5017746;28;20662;-78
2022/05/07 03:36:58;;;;;;;16.63;14.90;;;14.10;99.90;;;;;;5017304;28;20181;-78
2022/05/07 03:39:26;;;;;;;16.75;15.25;;;14.10;99.90;;;;;;5016961;28;20201;-78
2022/05/07 03:41:52;;;;;;;18.25;16.55;;;14.00;99.90;;;;;;5017069;28;20806;-77
2022/05/07 03:44:20;;;;;;;17.65;15.98;;;14.00;99.90;;;;;;5017503;28;20166;-78
2022/05/07 03:46:48;;;;;;;19.83;17.73;;;14.00;99.90;;;;;;5017618;28;20172;-77
2022/05/07 03:49:15;;;;;;;17.23;15.53;;;14.00;99.90;;;;;;5016813;28;20555;-77
2022/05/07 03:54:26;;;;;;;17.00;15.20;;;13.90;99.90;;;;;;5035042;28;20668;-77
2022/05/07 03:56:52;;;;;;;19.55;17.48;;;13.90;99.90;;;;;;5017335;28;20178;-77
2022/05/07 03:59:23;;;;;;;19.00;17.27;;;13.90;99.90;;;;;;5016744;28;20232;-77
2022/05/07 04:01:52;;;;;;;17.85;16.15;;;13.90;99.90;;;;;;5035094;28;20534;-77
2022/05/07 04:04:26;;;;;;;19.02;17.23;;;13.90;99.90;;;;;;5017097;28;20177;-77
2022/05/07 04:06:53;;;;;;;18.05;16.25;;;13.90;99.90;;;;;;5016825;28;20294;-77
2022/05/07 04:09:19;;;;;;;20.70;18.63;;;13.90;99.90;;;;;;5016484;28;20661;-77
2022/05/07 04:11:45;;;;;;;17.90;16.25;;;13.90;99.90;;;;;;5034608;28;20181;-77
2022/05/07 04:14:12;;;;;;;17.15;15.45;;;13.90;99.90;;;;;;5016941;28;20174;-77
2022/05/07 04:16:37;;;;;;;17.97;16.37;;;13.90;99.90;;;;;;5017100;28;20664;-77
2022/05/07 04:19:08;;;;;;;18.45;16.75;;;13.90;99.90;;;;;;5016451;28;20201;-77
2022/05/07 04:21:34;;;;;;;18.80;16.90;;;13.90;99.90;;;;;;5016192;28;20264;-77
2022/05/07 04:24:09;;;;;;;19.95;17.98;;;13.90;99.90;;;;;;5016865;28;20232;-77
2022/05/07 04:26:37;;;;;;;19.17;17.35;;;13.90;99.90;;;;;;5000829;28;20519;-77
2022/05/07 04:29:04;;;;;;;18.25;16.40;;;13.90;99.90;;;;;;5016309;28;20206;-77
2022/05/07 04:31:31;;;;;;;16.23;14.57;;;13.90;99.90;;;;;;4999912;28;20201;-77
2022/05/07 04:34:01;;;;;;;18.55;16.85;;;13.90;99.90;;;;;;5016565;28;20181;-77
2022/05/07 04:36:30;;;;;;;18.80;16.95;;;13.90;99.90;;;;;;5016550;28;20837;-77
2022/05/07 04:39:00;;;;;;;18.40;16.27;;;14.00;99.90;;;;;;5014907;28;20201;-77
2022/05/07 04:41:31;;;;;;;19.63;17.67;;;14.00;99.90;;;;;;5016180;28;20192;-77
2022/05/07 04:43:56;;;;;;;18.33;16.63;;;14.00;99.90;;;;;;5016541;28;20625;-77
2022/05/07 04:46:22;;;;;;;18.30;16.60;;;14.00;99.90;;;;;;5016663;28;20560;-78
2022/05/07 04:48:58;;;;;;;16.13;14.52;;;14.10;99.90;;;;;;5015946;28;20177;-77
2022/05/07 04:51:24;;;;;;;20.40;18.33;;;14.10;99.90;;;;;;5015893;28;20562;-77
2022/05/07 04:54:00;;;;;;;19.85;18.05;;;14.20;99.90;;;;;;5016625;28;20211;-78
2022/05/07 04:56:28;;;;;;;18.52;16.83;;;14.20;99.90;;;;;;5016635;28;20181;-77
2022/05/07 04:59:01;;;;;;;18.23;16.55;;;14.20;99.90;;;;;;5015945;28;20204;-77
2022/05/07 05:01:35;;;;;;;20.00;18.15;;;14.30;99.90;;;;;;5016388;28;20194;-77
2022/05/07 05:04:04;;;;;;;20.27;18.45;;;14.30;99.90;;;;;;5019266;28;20162;-78
2022/05/07 05:06:33;;;;;;;18.17;16.38;;;14.30;99.90;;;;;;5006519;28;20696;-77
2022/05/07 05:09:05;;;;;;;19.02;17.13;;;14.30;99.90;;;;;;5024239;28;20166;-78
2022/05/07 05:11:34;;;;;;;19.08;17.45;;;14.40;99.90;;;;;;5015502;28;20197;-78
2022/05/07 05:14:00;;;;;;;18.10;16.40;;;14.50;99.90;;;;;;4999584;28;20277;-78
2022/05/07 05:16:29;;;;;;;17.25;15.85;;;14.60;99.90;;;;;;5015958;28;20516;-78
2022/05/07 05:19:04;;;;;;;17.95;16.35;;;14.70;99.90;;;;;;5015213;28;20235;-76
2022/05/07 05:21:30;;;;;;;18.83;17.03;;;14.80;99.90;;;;;;5015421;28;20213;-76
2022/05/07 05:24:08;;;;;;;18.48;16.70;;;14.90;99.90;;;;;;4999393;28;20622;-76
2022/05/07 05:26:36;;;;;;;19.23;17.45;;;14.90;99.90;;;;;;5015691;28;20170;-76
2022/05/07 05:29:07;;;;;;;19.70;17.80;;;15.00;99.90;;;;;;4998657;28;20589;-76
2022/05/07 05:31:33;;;;;;;17.95;16.35;;;14.90;99.90;;;;;;5014679;28;20186;-76
2022/05/07 05:34:05;;;;;;;19.05;16.58;;;14.90;99.90;;;;;;5015312;28;20166;-76
2022/05/07 05:36:41;;;;;;;19.35;17.63;;;15.00;99.90;;;;;;5015538;28;20654;-76
2022/05/07 05:39:08;;;;;;;16.75;15.02;;;15.00;99.90;;;;;;5014905;28;20205;-76
2022/05/07 05:41:35;;;;;;;16.80;15.43;;;15.00;99.90;;;;;;5014826;28;20177;-76
2022/05/07 05:44:02;;;;;;;18.70;17.08;;;15.00;99.90;;;;;;4999227;28;20279;-76
2022/05/07 05:46:29;;;;;;;17.83;16.23;;;15.10;99.90;;;;;;5015287;28;20169;-77
2022/05/07 05:48:55;;;;;;;18.50;16.60;;;15.20;99.90;;;;;;5014409;28;20184;-76
2022/05/07 05:51:21;;;;;;;16.73;15.23;;;15.50;99.90;;;;;;5014414;28;21180;-76
2022/05/07 05:53:49;;;;;;;16.63;14.97;;;15.90;99.90;;;;;;5015051;28;20196;-77
2022/05/07 05:56:15;;;;;;;15.47;14.17;;;16.40;99.90;;;;;;5014868;28;20939;-77
2022/05/07 05:58:46;;;;;;;15.90;14.40;;;16.90;99.90;;;;;;5014743;28;20631;-76
2022/05/07 06:01:14;;;;;;;15.70;14.20;;;17.20;99.90;;;;;;5015156;28;20616;-77
2022/05/07 06:04:00;;;;;;;14.77;13.47;;;17.60;99.90;;;;;;5008013;28;20605;-77
2022/05/07 06:06:26;;;;;;;16.60;14.20;;;17.90;99.90;;;;;;5019231;28;20592;-77
2022/05/07 06:08:52;;;;;;;15.77;14.37;;;18.30;99.90;;;;;;5026177;28;21206;-77
2022/05/07 06:11:20;;;;;;;13.37;12.17;;;18.60;99.90;;;;;;5022827;28;20965;-77
2022/05/07 06:13:47;;;;;;;15.00;13.50;;;19.00;99.90;;;;;;5027914;28;20622;-77
2022/05/07 06:16:14;;;;;;;13.80;12.53;;;19.30;99.90;;;;;;5025641;28;20597;-77
2022/05/07 06:18:40;;;;;;;13.40;12.13;;;19.70;99.90;;;;;;5029484;28;21250;-77
2022/05/07 06:21:09;;;;;;;13.13;12.00;;;20.20;99.90;;;;;;5022505;28;20947;-77
2022/05/07 06:23:39;;;;;;;12.97;11.77;;;20.70;99.90;;;;;;5031128;28;21104;-77
2022/05/07 06:28:51;;;;;;;13.60;12.37;;;21.50;99.90;;;;;;5030403;28;20608;-77
2022/05/07 06:31:17;;;;;;;12.40;11.40;;;21.80;98.60;;;;;;5013222;28;20600;-77
2022/05/07 06:33:45;;;;;;;12.53;11.23;;;22.20;98.40;;;;;;5014295;28;20625;-77
2022/05/07 06:36:12;;;;;;;12.00;10.93;;;22.70;98.30;;;;;;4996736;28;20631;-77
2022/05/07 06:38:39;;;;;;;11.77;10.77;;;23.30;97.70;;;;;;5013704;28;20620;-77
2022/05/07 06:41:08;;;;;;;12.07;11.07;;;23.60;96.00;;;;;;5031501;28;20599;-77
2022/05/07 06:43:43;;;;;;;11.47;10.57;;;24.10;95.70;;;;;;5013976;28;20929;-77
2022/05/07 06:46:11;;;;;;;11.57;10.33;;;24.80;95.70;;;;;;5014239;28;20572;-77
2022/05/07 06:48:48;;;;;;;10.87;9.77;;;25.40;94.50;;;;;;5003762;28;20642;-77
2022/05/07 06:51:24;;;;;;;10.27;9.47;;;25.80;93.60;;;;;;5020113;28;20693;-77
2022/05/07 06:53:50;;;;;;;10.60;9.70;;;26.30;92.50;;;;;;5031366;28;20631;-78
2022/05/07 06:56:16;;;;;;;10.23;9.33;;;26.70;91.50;;;;;;5030936;28;20227;-77
2022/05/07 06:58:42;;;;;;;10.93;9.93;;;27.20;90.50;;;;;;5025047;28;20227;-77
2022/05/07 07:01:08;;;;;;;10.83;9.93;;;27.60;88.30;;;;;;5029013;28;20624;-77
2022/05/07 07:03:34;;;;;;;9.43;8.67;;;27.70;85.70;;;;;;5031453;28;20203;-77
2022/05/07 07:06:00;;;;;;;10.77;9.80;;;28.20;84.50;;;;;;5031541;28;20625;-77
2022/05/07 07:08:29;;;;;;;9.63;8.73;;;28.60;82.10;;;;;;5031056;28;20169;-77
2022/05/07 07:10:55;;;;;;;9.77;8.67;;;28.90;80.00;;;;;;5030952;28;21006;-77
2022/05/07 07:13:21;;;;;;;10.93;9.93;;;29.20;78.20;;;;;;5028543;28;20734;-78
2022/05/07 07:15:48;;;;;;;9.30;8.33;;;29.60;76.30;;;;;;5027359;28;20553;-77
2022/05/07 07:18:14;;;;;;;10.43;9.47;;;29.90;75.20;;;;;;5030979;28;20177;-77
2022/05/07 07:20:42;;;;;;;9.10;8.30;;;30.00;70.80;;;;;;5030980;28;20596;-77
2022/05/07 07:23:11;;;;;;;10.07;9.10;;;30.30;70.20;;;;;;5031433;28;20166;-77
2022/05/07 07:25:37;;;;;;;10.60;9.70;;;30.70;68.30;;;;;;5013730;28;20564;-77
2022/05/07 07:28:03;;;;;;;10.60;9.60;;;30.90;67.10;;;;;;5030880;28;20579;-77
2022/05/07 07:30:29;;;;;;;10.97;9.87;;;31.30;65.90;;;;;;5013096;28;21025;-80
2022/05/07 07:32:55;;;;;;;10.00;9.00;;;31.40;62.40;;;;;;5031383;28;21140;-78
2022/05/07 07:35:21;;;;;;;10.17;9.27;;;31.30;60.70;;;;;;5031361;28;20279;-77
2022/05/07 07:37:46;;;;;;;10.03;9.03;;;31.40;60.00;;;;;;5030030;28;20178;-78
2022/05/07 07:40:13;;;;;;;10.03;9.13;;;31.60;59.70;;;;;;5030731;28;20232;-78
2022/05/07 07:42:42;;;;;;;8.70;7.83;;;31.60;58.80;;;;;;5031337;28;20256;-78
2022/05/07 07:47:57;;;;;;;10.20;9.20;;;32.10;58.10;;;;;;5030623;28;20577;-78
2022/05/07 07:50:24;;;;;;;10.40;9.37;;;32.50;58.30;;;;;;5028532;28;20646;-77
2022/05/07 07:52:53;;;;;;;9.70;8.87;;;32.70;57.00;;;;;;5030244;28;20594;-78
2022/05/07 07:55:20;;;;;;;8.50;7.77;;;33.10;56.00;;;;;;5030676;28;20589;-77
2022/05/07 07:57:46;;;;;;;8.33;7.53;;;33.30;55.40;;;;;;5029013;28;20568;-77
2022/05/07 08:00:12;;;;;;;9.23;8.43;;;33.60;55.70;;;;;;5028614;28;21224;-77
2022/05/07 08:02:49;;;;;;;9.00;8.10;;;33.70;54.20;;;;;;5029241;28;20576;-77
2022/05/07 08:05:17;;;;;;;12.25;11.02;;;33.90;53.00;;;;;;5028536;28;20701;-78
2022/05/07 08:13:14;;;;;;;9.17;8.37;;;33.70;48.40;;;;;;5033003;28;20986;-78
2022/05/07 08:15:42;;;;;;;8.73;7.83;;;33.70;48.90;;;;;;5034517;28;21013;-79
2022/05/07 08:18:07;;;;;;;8.00;7.20;;;33.80;49.00;;;;;;5016490;28;20666;-78
2022/05/07 08:20:34;;;;;;;8.70;6.90;;;33.90;49.00;;;;;;5034266;28;20712;-78
2022/05/07 08:23:00;;;;;;;12.37;7.80;;;34.10;48.90;;;;;;5034493;28;21144;-78
2022/05/07 08:25:26;;;;;;;10.48;9.00;;;34.20;48.50;;;;;;5015880;28;20798;-78
2022/05/07 08:27:52;;;;;;;8.23;7.07;;;33.90;44.70;;;;;;5033571;28;20732;-77
2022/05/07 08:30:17;;;;;;;8.00;7.30;;;34.20;46.80;;;;;;5033476;28;20245;-77
2022/05/07 08:32:43;;;;;;;8.30;7.03;;;34.40;46.80;;;;;;5016933;28;20234;-78
2022/05/07 08:35:09;;;;;;;7.93;6.93;;;34.50;46.70;;;;;;5016454;28;20209;-78
2022/05/07 08:37:34;;;;;;;19.73;9.20;;;34.70;46.80;;;;;;5033621;28;20714;-77
2022/05/07 08:40:01;;;;;;;8.33;7.27;;;34.80;44.70;;;;;;5033518;28;20222;-78
2022/05/07 08:42:29;;;;;;;11.43;7.33;;;35.00;45.30;;;;;;5030324;28;20180;-79
2022/05/07 08:44:58;;;;;;;7.43;5.87;;;35.10;45.50;;;;;;5034243;28;20613;-78
2022/05/07 08:47:23;;;;;;;8.50;7.17;;;35.20;45.10;;;;;;5034531;28;20677;-80
2022/05/07 08:49:50;;;;;;;7.07;6.40;;;35.20;44.40;;;;;;5015581;28;20711;-79
2022/05/07 08:52:20;;;;;;;7.03;5.83;;;35.20;44.00;;;;;;5034539;28;20191;-79
2022/05/07 08:54:46;;;;;;;6.87;6.17;;;35.10;43.80;;;;;;5034971;28;20613;-79
2022/05/07 08:57:12;;;;;;;8.83;6.67;;;35.10;43.80;;;;;;5033091;28;21295;-79
2022/05/07 08:59:39;;;;;;;7.13;6.43;;;35.10;43.40;;;;;;5025443;28;20652;-79
2022/05/07 09:02:06;;;;;;;7.90;6.07;;;35.10;43.30;;;;;;5034093;28;20645;-79
2022/05/07 09:04:32;;;;;;;6.63;5.40;;;35.10;43.40;;;;;;5034048;28;21418;-79
2022/05/07 09:07:01;;;;;;;9.23;7.00;;;35.10;43.00;;;;;;5032595;28;20566;-79
2022/05/07 09:09:30;;;;;;;8.37;5.73;;;35.30;43.40;;;;;;5032956;28;21130;-79
2022/05/07 09:11:57;;;;;;;8.07;5.93;;;35.40;43.40;;;;;;5033249;28;20594;-78
2022/05/07 09:14:31;;;;;;;12.05;7.72;;;35.50;43.30;;;;;;5031928;28;20710;-78
2022/05/07 09:17:00;;;;;;;8.30;6.13;;;35.20;40.90;;;;;;5033371;28;20925;-78
2022/05/07 09:19:30;;;;;;;10.68;8.90;;;35.50;41.60;;;;;;5031827;28;20900;-79
2022/05/07 09:22:09;;;;;;;9.80;6.13;;;35.00;38.60;;;;;;5034339;28;20184;-79
2022/05/07 09:24:36;;;;;;;10.57;7.10;;;35.10;40.70;;;;;;5038603;28;20621;-79
2022/05/07 09:27:04;;;;;;;11.93;7.23;;;35.40;40.90;;;;;;5037833;28;20924;-80
2022/05/07 09:29:31;;;;;;;9.82;7.90;;;35.50;41.30;;;;;;5033917;28;20707;-79
2022/05/07 09:32:08;;;;;;;10.17;7.10;;;35.60;39.80;;;;;;5034018;28;20196;-79
2022/05/07 09:37:39;;;;;;;10.23;7.57;;;36.10;40.20;;;;;;5039071;28;20576;-85
2022/05/07 09:40:10;;;;;;;7.10;6.40;;;36.20;40.30;;;;;;5035747;28;20655;-85
2022/05/07 09:42:36;;;;;;;7.97;6.60;;;36.30;40.20;;;;;;5039144;28;20676;-84
2022/05/07 09:45:03;;;;;;;9.30;7.27;;;36.40;40.30;;;;;;5033831;28;20950;-84
2022/05/07 09:47:30;;;;;;;7.50;6.67;;;36.50;40.40;;;;;;5036128;28;20595;-84
2022/05/07 09:57:30;;;;;;;7.27;6.47;;;36.90;40.10;;;;;;5034871;28;20603;-85
2022/05/07 09:58:15;;;;;;;8.30;7.10;;;37.20;39.40;;;;;;5031782;28;20572;-84
2022/05/07 10:01:07;;;;;;;6.80;6.20;;;37.30;39.40;;;;;;5033096;28;20596;-84
2022/05/07 10:04:04;;;;;;;7.77;6.30;;;37.40;39.10;;;;;;5045590;22;20221;-75
2022/05/07 10:06:43;;;;;;;10.10;8.20;;;37.60;39.00;;;;;;5003819;28;21201;-73
2022/05/07 10:09:41;;;;;;;7.87;6.93;;;37.50;37.30;;;;;;5032331;28;20632;-73
2022/05/07 10:12:07;;;;;;;7.53;6.80;;;37.90;38.90;;;;;;5031143;28;20572;-74
2022/05/07 10:14:34;;;;;;;9.67;8.20;;;38.30;39.50;;;;;;5032535;28;20698;-74
2022/05/07 10:17:07;;;;;;;9.93;8.67;;;38.50;37.70;;;;;;5031163;28;20568;-74
2022/05/07 10:19:44;;;;;;;10.63;7.63;;;38.30;37.00;;;;;;5030231;28;20940;-74
2022/05/07 10:22:24;;;;;;;8.33;6.80;;;38.00;36.10;;;;;;5032261;28;20578;-74
2022/05/07 10:25:06;;;;;;;7.37;6.67;;;37.60;36.10;;;;;;5014692;28;20600;-73
2022/05/07 10:27:33;;;;;;;11.30;7.60;;;37.60;36.80;;;;;;5040139;28;20584;-73
2022/05/07 10:30:07;;;;;;;7.57;6.87;;;37.40;36.20;;;;;;5034290;28;21133;-73
2022/05/07 10:33:01;;;;;;;7.10;6.43;;;37.20;36.00;;;;;;5012221;28;20561;-74
2022/05/07 10:35:42;;;;;;;7.73;7.03;;;37.20;36.30;;;;;;5011756;28;20549;-74
2022/05/07 10:38:09;;;;;;;8.80;7.90;;;37.30;36.60;;;;;;5010430;28;20924;-74
2022/05/07 10:40:35;;;;;;;7.77;7.07;;;37.20;36.20;;;;;;4994107;28;20576;-74
2022/05/07 10:43:02;;;;;;;8.60;7.77;;;37.00;35.80;;;;;;5014251;28;20612;-73
2022/05/07 10:45:39;;;;;;;8.30;7.40;;;36.70;35.90;;;;;;5051670;28;20172;-74
2022/05/07 10:48:17;;;;;;;9.70;8.27;;;36.40;35.80;;;;;;5011613;28;20596;-73
2022/05/07 10:50:50;;;;;;;8.60;7.80;;;35.90;35.80;;;;;;5011875;28;20572;-72
2022/05/07 10:53:16;;;;;;;7.43;6.67;;;35.30;36.00;;;;;;5012256;28;20585;-73
2022/05/07 10:55:41;;;;;;;8.30;7.50;;;34.90;36.40;;;;;;5030289;28;20594;-73
2022/05/07 10:58:07;;;;;;;8.47;7.53;;;34.50;36.50;;;;;;5029416;28;20254;-73
2022/05/07 11:00:34;;;;;;;9.80;6.50;;;34.20;36.80;;;;;;5030052;28;20185;-73
2022/05/07 11:03:00;;;;;;;7.77;7.07;;;34.20;37.90;;;;;;5030884;28;20195;-73
2022/05/07 11:05:31;;;;;;;8.13;7.30;;;34.20;37.80;;;;;;5029979;28;20587;-73
2022/05/07 11:08:02;;;;;;;8.47;7.60;;;34.40;38.00;;;;;;5029541;28;20587;-74
2022/05/07 11:10:30;;;;;;;8.43;7.57;;;34.70;38.20;;;;;;5030969;28;20717;-73
2022/05/07 11:13:12;;;;;;;8.40;7.70;;;35.00;37.80;;;;;;5031201;28;20736;-73
2022/05/07 11:15:38;;;;;;;8.57;7.77;;;35.00;37.30;;;;;;5031866;28;20661;-73
2022/05/07 11:18:14;;;;;;;8.30;7.40;;;35.10;37.00;;;;;;5030028;28;20619;-73
2022/05/07 11:20:41;;;;;;;7.40;6.70;;;35.00;36.30;;;;;;5029976;28;20650;-73
2022/05/07 11:23:12;;;;;;;8.87;8.00;;;34.80;36.60;;;;;;5030113;28;20975;-73
2022/05/07 11:25:40;;;;;;;7.33;6.60;;;34.50;36.10;;;;;;5031446;28;20628;-73
2022/05/07 11:28:06;;;;;;;10.40;9.37;;;34.20;36.40;;;;;;5031243;28;20561;-74
2022/05/07 11:30:32;;;;;;;7.30;6.60;;;33.90;35.80;;;;;;5030046;28;20652;-74
2022/05/07 11:33:04;;;;;;;8.83;7.50;;;33.50;36.50;;;;;;5030125;28;20740;-74
2022/05/07 11:35:30;;;;;;;7.30;6.43;;;33.30;36.80;;;;;;5030141;28;20614;-74
2022/05/07 11:37:56;;;;;;;9.23;8.33;;;33.20;37.20;;;;;;5030817;28;20566;-75
2022/05/07 11:40:29;;;;;;;9.43;8.60;;;33.30;37.40;;;;;;5030869;28;20583;-74
2022/05/07 11:45:40;;;;;;;8.57;7.70;;;33.10;37.10;;;;;;5031018;28;20665;-74
2022/05/07 11:48:18;;;;;;;7.80;7.10;;;32.80;36.90;;;;;;5032965;28;20603;-74
2022/05/07 11:50:50;;;;;;;7.43;6.27;;;32.40;36.60;;;;;;5033801;28;20679;-74
2022/05/07 11:53:21;;;;;;;7.87;6.63;;;31.90;36.60;;;;;;5033635;28;20614;-74
2022/05/07 11:55:48;;;;;;;7.03;6.33;;;31.50;36.80;;;;;;5035104;28;20561;-72
2022/05/07 11:58:23;;;;;;;7.60;5.80;;;31.20;36.80;;;;;;5034872;28;20557;-72
2022/05/07 12:00:58;;;;;;;7.93;6.20;;;31.00;37.00;;;;;;5034793;28;20911;-73
2022/05/07 12:03:26;;;;;;;7.70;4.80;;;30.70;37.20;;;;;;5034651;28;20729;-72
2022/05/07 12:05:53;;;;;;;13.73;9.00;;;30.50;37.40;;;;;;5033567;28;21135;-74
2022/05/07 12:08:21;;;;;;;8.10;6.00;;;30.30;37.60;;;;;;5033479;28;21165;-73
2022/05/07 12:10:53;;;;;;;6.63;6.03;;;30.10;37.80;;;;;;5034647;28;20560;-72
2022/05/07 12:13:21;;;;;;;7.73;7.03;;;30.10;38.30;;;;;;5034832;28;21116;-72
2022/05/07 12:18:31;;;;;;;7.70;6.53;;;30.30;39.20;;;;;;5034424;28;20574;-73
2022/05/07 12:20:58;;;;;;;6.90;6.20;;;30.50;39.30;;;;;;5033167;28;20654;-73
2022/05/07 12:31:37;;;;;;;7.83;6.80;;;31.00;39.40;;;;;;5034744;28;20650;-75
2022/05/07 12:34:04;;;;;;;8.13;7.33;;;31.10;39.80;;;;;;5034714;28;20588;-73
2022/05/07 12:36:31;;;;;;;6.87;6.13;;;31.20;39.80;;;;;;5033483;28;20644;-73
2022/05/07 12:38:59;;;;;;;8.23;6.77;;;31.40;40.10;;;;;;5034382;28;20930;-73
2022/05/07 12:41:28;;;;;;;8.00;6.70;;;31.50;39.70;;;;;;5034066;28;20564;-73
2022/05/07 12:43:54;;;;;;;7.73;6.43;;;31.40;39.30;;;;;;5034344;28;20603;-73
2022/05/07 12:46:21;;;;;;;8.90;7.13;;;31.30;39.00;;;;;;5034289;28;20568;-74
2022/05/07 12:48:47;;;;;;;8.20;6.20;;;31.10;38.90;;;;;;5033895;28;20209;-73
2022/05/07 12:51:13;;;;;;;6.83;6.23;;;30.80;39.00;;;;;;5033903;28;20683;-72
2022/05/07 12:53:39;;;;;;;6.27;5.67;;;30.60;38.80;;;;;;5034124;28;20675;-74
2022/05/07 12:56:05;;;;;;;6.67;6.07;;;30.40;39.10;;;;;;5034464;28;20591;-75
2022/05/07 12:58:31;;;;;;;7.77;7.03;;;30.20;39.40;;;;;;5031789;28;20625;-74
2022/05/07 13:00:57;;;;;;;8.20;7.37;;;30.00;39.50;;;;;;5032077;28;20608;-74
2022/05/07 13:03:23;;;;;;;6.60;5.97;;;29.80;39.70;;;;;;5033781;28;20647;-74
2022/05/07 13:05:49;;;;;;;7.63;6.63;;;29.60;40.00;;;;;;5032686;28;20731;-74
2022/05/07 13:08:14;;;;;;;9.50;7.23;;;29.40;40.50;;;;;;5033499;28;20201;-74
2022/05/07 13:10:40;;;;;;;10.50;6.47;;;29.20;40.60;;;;;;5033556;28;20657;-74
2022/05/07 13:13:06;;;;;;;8.33;6.57;;;29.00;40.90;;;;;;5033925;28;20224;-73
2022/05/07 13:15:32;;;;;;;8.70;7.87;;;28.80;41.10;;;;;;5033596;28;21001;-73
2022/05/07 13:17:59;;;;;;;7.03;6.33;;;28.80;41.20;;;;;;5033053;28;20169;-73
2022/05/07 13:20:26;;;;;;;8.07;6.80;;;28.60;41.30;;;;;;5031837;28;21273;-74
2022/05/07 13:22:52;;;;;;;7.87;7.10;;;28.60;41.70;;;;;;5033418;28;20627;-74